Time;durP1;ratioP1;P1;durP2;ratioP2;P2;SDS_P1;SDS_P2;PMS_P1;PMS_P2;Temp;Humidity;BMP_temperature;BMP_pressure;BME280_temperature;BME280_humidity;BME280_pressure;Samples;Min_cycle;Max_cycle;Signal;HPM_P1;HPM_P2
2022/07/06 00:00:45;;;;;;;;;2.00;2.00;;;;;20.20;70.90;101848.72;6279093;22;45425;-96
2022/07/06 00:03:10;;;;;;;;;2.33;2.33;;;;;20.17;71.18;101838.00;6288985;22;44715;-96
2022/07/06 00:05:41;;;;;;;;;1.00;1.00;;;;;20.23;71.79;101807.03;6283968;22;45582;-96
2022/07/06 00:08:07;;;;;;;;;1.00;1.00;;;;;20.09;72.03;101772.91;6290766;22;46738;-96
2022/07/06 00:10:33;;;;;;;;;3.00;3.00;;;;;20.08;71.93;101793.34;6294623;22;44768;-96
2022/07/06 00:12:58;;;;;;;;;4.00;3.00;;;;;20.02;72.05;101786.97;6266293;22;45404;-96
2022/07/06 00:15:24;;;;;;;;;2.00;2.00;;;;;20.04;72.20;101778.16;6289103;22;44855;-96
2022/07/06 00:17:49;;;;;;;;;2.00;2.00;;;;;19.93;72.59;101755.69;6283814;22;47130;-96
2022/07/06 00:20:15;;;;;;;;;2.67;2.67;;;;;20.03;72.60;101772.78;6281279;22;45246;-96
2022/07/06 00:22:40;;;;;;;;;2.00;2.00;;;;;19.88;72.67;101745.84;6280863;22;45325;-95
2022/07/06 00:25:11;;;;;;;;;2.00;2.00;;;;;19.94;72.73;101720.19;6273237;22;45433;-96
2022/07/06 00:27:37;;;;;;;;;4.33;2.00;;;;;19.87;73.07;101708.47;6272404;22;48091;-96
2022/07/06 00:30:02;;;;;;;;;2.00;2.00;;;;;19.87;73.27;101684.50;6271989;22;45380;-96
2022/07/06 00:32:33;;;;;;;;;3.67;3.00;;;;;19.76;73.36;101687.88;6272567;22;45411;-95
2022/07/06 00:35:02;;;;;;;;;1.67;1.67;;;;;19.77;73.64;101679.00;6271518;22;45662;-96
2022/07/06 00:37:28;;;;;;;;;4.00;2.67;;;;;19.77;73.49;101663.00;6271241;22;47382;-96
2022/07/06 00:39:53;;;;;;;;;3.00;3.00;;;;;19.74;74.29;101638.97;6271415;22;45383;-95
2022/07/06 00:42:21;;;;;;;;;2.00;2.00;;;;;19.70;74.23;101634.44;6273592;22;45331;-96
2022/07/06 00:44:56;;;;;;;;;1.00;1.00;;;;;19.63;74.31;101614.78;6272069;22;45325;-96
2022/07/06 00:47:21;;;;;;;;;4.00;4.00;;;;;19.54;74.27;101603.91;6272792;22;48514;-96
2022/07/06 00:52:30;;;;;;;;;2.33;1.00;;;;;19.61;74.84;101573.00;6283797;22;45147;-96
2022/07/06 00:54:56;;;;;;;;;3.00;2.33;;;;;19.46;75.17;101537.19;6282381;22;45265;-96
2022/07/06 00:57:22;;;;;;;;;2.00;2.00;;;;;19.48;75.20;101555.88;6280723;22;47204;-95
2022/07/06 00:59:47;;;;;;;;;2.00;2.00;;;;;19.38;75.18;101536.16;6278320;22;45231;-96
2022/07/06 01:02:13;;;;;;;;;1.00;1.00;;;;;19.41;75.11;101538.84;6276084;22;45254;-96
2022/07/06 01:04:38;;;;;;;;;3.00;3.00;;;;;19.40;75.52;101530.00;6272962;22;45433;-96
2022/07/06 01:07:09;;;;;;;;;2.33;2.00;;;;;19.40;75.90;101516.69;6272627;22;46797;-96
2022/07/06 01:09:34;;;;;;;;;2.00;2.00;;;;;19.41;75.94;101522.88;6272644;22;45246;-96
2022/07/06 01:12:32;;;;;;;;;2.00;2.00;;;;;19.29;76.31;101507.56;6273751;22;45317;-96
2022/07/06 01:14:58;;;;;;;;;3.33;2.33;;;;;19.24;76.36;101488.84;6148954;22;45514;-96
2022/07/06 01:17:34;;;;;;;;;1.00;1.00;;;;;19.22;76.54;101487.00;6125458;23;47401;-95
2022/07/06 01:20:14;;;;;;;;;3.00;3.00;;;;;19.14;76.31;101476.16;6123723;23;45485;-95
2022/07/06 01:22:41;;;;;;;;;3.00;2.00;;;;;19.17;77.07;101477.13;6124818;23;45237;-95
2022/07/06 01:25:09;;;;;;;;;3.00;3.00;;;;;19.14;76.69;101468.19;6123621;23;45369;-96
2022/07/06 01:27:37;;;;;;;;;6.00;2.33;;;;;19.12;76.84;101465.47;6124405;23;47677;-96
2022/07/06 01:30:08;;;;;;;;;2.00;2.00;;;;;19.04;77.41;101440.50;6126461;23;45663;-95
2022/07/06 01:32:35;;;;;;;;;2.00;2.00;;;;;18.98;77.36;101428.84;6126600;23;45325;-94
2022/07/06 01:35:00;;;;;;;;;2.00;2.00;;;;;18.94;77.43;101421.66;6133374;23;45319;-95
2022/07/06 01:37:26;;;;;;;;;3.00;2.00;;;;;19.00;77.59;101442.19;6133353;23;46968;-94
2022/07/06 01:39:51;;;;;;;;;3.67;3.00;;;;;19.00;77.58;101436.84;6132037;23;45458;-95
2022/07/06 01:42:19;;;;;;;;;2.00;2.00;;;;;19.04;78.33;101440.50;6131372;23;45433;-96
2022/07/06 01:44:44;;;;;;;;;5.00;3.00;;;;;18.97;78.35;101434.13;6131457;23;45396;-96
2022/07/06 01:47:11;;;;;;;;;4.00;3.00;;;;;18.94;78.15;101428.75;6130415;23;47422;-96
2022/07/06 01:49:39;;;;;;;;;3.00;3.00;;;;;18.92;78.78;101422.50;6130191;23;45306;-95
2022/07/06 01:52:05;;;;;;;;;2.33;2.33;;;;;18.85;78.70;101410.84;6249810;22;45421;-95
2022/07/06 01:54:31;;;;;;;;;3.67;3.67;;;;;18.82;79.26;101397.47;6280213;22;45227;-95
2022/07/06 01:56:56;;;;;;;;;3.33;2.67;;;;;18.73;79.03;101384.88;6278995;22;46345;-96
2022/07/06 01:59:22;;;;;;;;;2.00;2.00;;;;;18.80;79.25;101392.13;6280228;22;45309;-95
2022/07/06 02:01:47;;;;;;;;;3.00;3.00;;;;;18.74;79.62;101389.31;6277160;22;45419;-95
2022/07/06 02:04:18;;;;;;;;;3.00;3.00;;;;;18.75;79.24;101397.34;6271139;22;45450;-96
2022/07/06 02:06:43;;;;;;;;;3.00;3.00;;;;;18.68;79.44;101384.78;6270356;22;47878;-94
2022/07/06 02:09:11;;;;;;;;;2.00;2.00;;;;;18.61;79.56;101372.19;6271614;22;45416;-95
2022/07/06 02:11:42;;;;;;;;;2.00;2.00;;;;;18.61;79.73;101383.72;6271607;22;45307;-95
2022/07/06 02:14:07;;;;;;;;;3.00;3.00;;;;;18.62;80.20;101392.63;6280346;22;45458;-96
2022/07/06 02:16:33;;;;;;;;;4.00;4.00;;;;;18.63;80.53;101399.75;6280510;22;47488;-95
2022/07/06 02:18:58;;;;;;;;;4.00;3.00;;;;;18.52;80.25;101384.44;6280687;22;45388;-96
2022/07/06 02:21:24;;;;;;;;;5.00;2.33;;;;;18.43;80.58;101374.47;6279601;22;45378;-96
2022/07/06 02:23:49;;;;;;;;;3.00;3.00;;;;;18.47;80.64;101378.13;6273890;22;45344;-96
2022/07/06 02:26:15;;;;;;;;;4.00;4.00;;;;;18.35;80.85;101361.91;6271528;22;47284;-95
2022/07/06 02:28:45;;;;;;;;;2.00;2.00;;;;;18.36;80.78;101366.34;6272047;22;45360;-96
2022/07/06 02:31:15;;;;;;;;;3.33;3.33;;;;;18.36;81.07;101369.00;6272966;22;45430;-96
2022/07/06 02:33:41;;;;;;;;;2.00;2.00;;;;;18.30;81.33;101359.13;6272278;22;45346;-96
2022/07/06 02:36:07;;;;;;;;;4.67;3.00;;;;;18.27;81.63;101357.28;6271774;22;46858;-96
2022/07/06 02:38:33;;;;;;;;;3.00;3.00;;;;;18.24;81.63;101356.34;6272551;22;45310;-96
2022/07/06 02:40:58;;;;;;;;;4.00;2.33;;;;;18.33;81.82;101376.88;6271698;22;45332;-96
2022/07/06 02:43:29;;;;;;;;;3.00;3.00;;;;;18.30;82.13;101378.63;6273352;22;45484;-96
2022/07/06 02:45:58;;;;;;;;;4.00;4.00;;;;;18.14;82.46;101353.41;6274476;22;47209;-96
2022/07/06 02:48:45;;;;;;;;;3.00;3.00;;;;;18.23;82.36;101381.09;6272131;22;45393;-96
2022/07/06 02:51:23;;;;;;;;;6.00;6.00;;;;;18.20;82.51;101379.25;6275965;22;45492;-96
2022/07/06 02:53:49;;;;;;;;;2.00;2.00;;;;;18.13;82.86;101379.94;6275559;22;45451;-96
2022/07/06 02:56:33;;;;;;;;;4.33;4.33;;;;;18.13;82.82;101383.50;6276783;22;48751;-95
2022/07/06 02:59:03;;;;;;;;;3.00;3.00;;;;;18.13;82.84;101383.50;6281726;22;45270;-96
2022/07/06 03:01:31;;;;;;;;;3.00;3.00;;;;;18.02;83.10;101379.69;6280177;22;45144;-96
2022/07/06 03:03:57;;;;;;;;;3.00;3.00;;;;;18.14;83.41;101401.22;6280086;22;45215;-96
2022/07/06 03:06:22;;;;;;;;;3.67;3.67;;;;;18.06;83.42;101387.78;6279380;22;46917;-96
2022/07/06 03:08:47;;;;;;;;;3.00;3.00;;;;;17.94;84.00;101382.13;6274359;22;45273;-96
2022/07/06 03:11:13;;;;;;;;;4.33;4.33;;;;;17.94;83.89;101372.44;6273869;22;45218;-96
2022/07/06 03:13:38;;;;;;;;;4.00;4.00;;;;;17.91;84.11;101375.00;6273179;22;45373;-96
2022/07/06 03:16:04;;;;;;;;;6.00;4.67;;;;;17.95;84.14;101379.53;6272740;22;48096;-96
2022/07/06 03:18:29;;;;;;;;;4.33;4.33;;;;;17.86;84.31;101373.97;6275968;22;45351;-95
2022/07/06 03:20:55;;;;;;;;;4.00;4.00;;;;;17.84;84.78;101368.66;6276406;22;45234;-96
2022/07/06 03:23:20;;;;;;;;;4.00;4.00;;;;;17.95;84.44;101397.22;6278744;22;45365;-96
2022/07/06 03:25:46;;;;;;;;;4.33;4.00;;;;;17.78;84.78;101362.28;6277756;22;48252;-96
2022/07/06 03:28:12;;;;;;;;;4.00;4.00;;;;;17.87;85.15;101371.38;6280726;22;45539;-96
2022/07/06 03:34:42;;;;;;;;;;;;;;;;;;;;;
2022/07/06 03:37:39;;;;;;;;;4.67;4.00;;;;;17.70;85.98;101364.75;6178502;23;74438;-96
2022/07/06 03:40:11;;;;;;;;;4.00;4.00;;;;;17.71;86.11;101363.88;6152086;23;45385;-96
2022/07/06 03:42:37;;;;;;;;;4.00;4.00;;;;;17.69;86.15;101366.50;6154517;23;45423;-96
2022/07/06 03:45:42;;;;;;;;;6.00;5.00;;;;;17.71;86.51;101363.88;6162933;23;45442;-96
2022/07/06 03:48:10;;;;;;;;;4.67;3.00;;;;;17.61;86.48;101360.09;6068255;23;47277;-96
2022/07/06 03:51:20;;;;;;;;;3.00;3.00;;;;;17.69;86.63;101373.56;6167431;23;45391;-96
2022/07/06 03:53:49;;;;;;;;;5.00;5.00;;;;;17.69;86.93;101378.88;6038480;23;45693;-95
2022/07/06 03:56:29;;;;;;;;;5.67;4.00;;;;;17.67;86.98;101385.91;6035149;23;45291;-95
2022/07/06 03:59:41;;;;;;;;;4.00;4.00;;;;;17.64;87.11;101386.72;6059313;23;46946;-95
2022/07/06 04:02:56;;;;;;;;;4.00;4.00;;;;;17.62;87.54;101378.72;5999452;23;45668;-96
2022/07/06 04:05:38;;;;;;;;;4.00;4.00;;;;;17.52;87.59;101363.41;5944177;23;45475;-96
2022/07/06 04:09:04;;;;;;;;;4.00;4.00;;;;;17.56;87.63;101367.03;5945113;23;45354;-95
2022/07/06 04:11:41;;;;;;;;;5.00;5.00;;;;;17.65;87.92;101386.75;5984536;23;48207;-95
2022/07/06 04:14:28;;;;;;;;;4.00;4.00;;;;;17.49;88.61;101350.97;6003297;23;45315;-96
2022/07/06 04:17:00;;;;;;;;;3.67;3.00;;;;;17.55;88.85;101358.16;5979418;23;45639;-95
2022/07/06 04:19:54;;;;;;;;;3.00;3.00;;;;;17.64;88.64;101384.97;6003839;23;45531;-96
2022/07/06 04:22:19;;;;;;;;;4.00;3.00;;;;;17.50;88.72;101351.84;6002714;23;47596;-96
2022/07/06 04:25:09;;;;;;;;;;;;;;;;;;;;;
2022/07/06 04:27:45;;;;;;;;;5.00;3.00;;;;;17.50;88.93;101360.69;6030360;23;70535;-95
2022/07/06 04:30:24;;;;;;;;;5.00;5.00;;;;;17.52;89.15;101353.69;6067040;23;45472;-96
2022/07/06 04:33:54;;;;;;;;;5.00;5.00;;;;;17.63;89.22;101363.66;6068895;23;47775;-95
2022/07/06 04:36:53;;;;;;;;;5.67;4.33;;;;;17.75;89.45;101368.44;6068602;23;45324;-96
2022/07/06 04:42:48;;;;;;;;;;;;;;;;;;;;;
2022/07/06 04:46:01;;;;;;;;;6.33;6.33;;;;;17.65;90.08;101340.75;6089040;23;73814;-96
2022/07/06 04:48:28;;;;;;;;;8.00;5.00;;;;;17.81;89.91;101359.69;6070150;23;45399;-96
2022/07/06 04:51:14;;;;;;;;;4.33;4.33;;;;;17.79;90.35;101348.13;6094623;23;45436;-96
2022/07/06 04:53:49;;;;;;;;;4.67;4.00;;;;;17.78;90.42;101346.38;6097304;23;45468;-96
2022/07/06 04:56:14;;;;;;;;;4.67;4.00;;;;;17.91;90.83;101355.53;6071644;23;47025;-95
2022/07/06 04:58:42;;;;;;;;;4.00;3.67;;;;;17.90;90.98;101348.41;6072683;23;45455;-95
2022/07/06 05:01:16;;;;;;;;;4.67;4.67;;;;;18.04;91.31;101367.34;6099301;23;45314;-95
2022/07/06 05:04:00;;;;;;;;;3.33;3.33;;;;;18.03;91.42;101350.53;6075828;23;45642;-95
2022/07/06 05:06:32;;;;;;;;;5.00;5.00;;;;;18.08;91.51;101348.88;6097424;23;47924;-95
2022/07/06 05:09:30;;;;;;;;;4.00;4.00;;;;;18.07;91.43;101336.44;6098803;23;45380;-95
2022/07/06 05:12:25;;;;;;;;;7.33;6.00;;;;;18.17;91.85;101324.25;6073366;23;45345;-95
2022/07/06 05:14:51;;;;;;;;;4.67;4.67;;;;;18.27;91.47;101337.81;6089550;23;45397;-95
2022/07/06 05:17:16;;;;;;;;;5.33;5.00;;;;;18.41;90.97;101362.94;6296551;22;47248;-96
2022/07/06 05:20:00;;;;;;;;;5.00;5.00;;;;;18.43;91.12;101347.91;6280727;22;45425;-96
2022/07/06 05:22:28;;;;;;;;;6.00;4.67;;;;;18.46;90.63;101349.72;6281580;22;45342;-95
2022/07/06 05:25:12;;;;;;;;;6.33;5.00;;;;;18.52;90.49;101351.66;6277975;22;45480;-94
2022/07/06 05:27:58;;;;;;;;;7.00;6.00;;;;;18.56;90.41;101348.19;6271850;22;47800;-95
2022/07/06 05:30:26;;;;;;;;;6.00;5.00;;;;;18.65;90.54;101358.13;6276042;22;45542;-95
2022/07/06 05:33:16;;;;;;;;;4.67;4.00;;;;;18.66;90.61;101354.59;6272498;22;45228;-95
2022/07/06 05:36:10;;;;;;;;;5.67;4.00;;;;;18.79;90.40;101368.13;6245009;22;45628;-96
2022/07/06 05:39:01;;;;;;;;;6.00;6.00;;;;;18.93;90.41;101376.41;6271446;22;47111;-95
2022/07/06 05:41:47;;;;;;;;;6.67;5.00;;;;;18.88;90.46;101360.38;6178874;22;45349;-95
2022/07/06 05:44:25;;;;;;;;;6.00;6.00;;;;;19.03;90.30;101380.16;6183736;22;45286;-95
2022/07/06 05:52:46;;;;;;;;;3.67;3.67;;;;;19.17;90.33;101360.03;6210056;22;45486;-96
2022/07/06 05:55:49;;;;;;;;;6.00;5.00;;;;;19.33;89.82;101370.13;6182238;22;45337;-95
2022/07/06 06:38:32;;;;;;;;;4.67;4.67;;;;;20.71;86.65;101418.56;6248529;22;47035;-93
2022/07/06 06:40:57;;;;;;;;;3.00;3.00;;;;;20.70;86.79;101399.84;6274226;22;47659;-93
2022/07/06 06:43:23;;;;;;;;;8.00;5.33;;;;;20.92;86.34;101432.16;6223380;22;45352;-94
2022/07/06 06:45:48;;;;;;;;;7.33;5.00;;;;;20.93;86.24;101415.25;6220315;22;45316;-93
2022/07/06 06:48:13;;;;;;;;;4.67;4.33;;;;;20.95;85.98;101418.88;6274787;22;45258;-92
2022/07/06 06:50:39;;;;;;;;;5.00;5.00;;;;;21.09;85.97;101427.06;6228503;22;48023;-93
2022/07/06 06:53:06;;;;;;;;;6.33;5.00;;;;;21.16;85.58;101433.38;6223835;22;45791;-92
2022/07/06 06:55:32;;;;;;;;;7.00;5.00;;;;;21.24;85.98;101429.03;6265365;22;45738;-89
2022/07/06 06:57:57;;;;;;;;;6.67;6.00;;;;;21.29;85.40;101426.41;6239694;22;47236;-90
2022/07/06 07:00:22;;;;;;;;;6.00;6.00;;;;;21.38;84.83;101429.19;6239148;22;46214;-89
2022/07/06 07:02:48;;;;;;;;;5.00;4.00;;;;;21.47;84.86;101430.16;6239426;22;45258;-89
2022/07/06 07:05:13;;;;;;;;;5.00;5.00;;;;;21.59;84.85;101434.75;6210217;22;54841;-90
2022/07/06 07:07:38;;;;;;;;;7.00;4.00;;;;;21.65;84.57;101434.78;6240510;22;45318;-91
2022/07/06 07:10:05;;;;;;;;;4.00;4.00;;;;;21.79;84.13;101444.72;6212398;22;47814;-88
2022/07/06 07:12:30;;;;;;;;;7.33;5.67;;;;;21.85;83.95;101447.47;6239734;22;45300;-90
2022/07/06 07:14:56;;;;;;;;;7.67;5.00;;;;;21.94;83.90;101452.03;6239638;22;45247;-91
2022/07/06 07:17:21;;;;;;;;;8.67;4.67;;;;;22.00;82.69;101457.44;6212223;22;45427;-92
2022/07/06 07:19:47;;;;;;;;;5.00;5.00;;;;;22.09;82.15;101475.31;6211958;22;47645;-91
2022/07/06 07:22:12;;;;;;;;;5.67;4.00;;;;;22.10;82.14;101480.69;6211881;22;45536;-93
2022/07/06 07:24:39;;;;;;;;;4.00;4.00;;;;;22.17;81.46;101486.06;6238646;22;45236;-91
2022/07/06 07:27:05;;;;;;;;;4.33;4.33;;;;;22.25;81.02;101492.38;6208203;22;45457;-90
2022/07/06 07:29:30;;;;;;;;;4.00;3.67;;;;;22.29;80.73;101494.19;6238868;22;45277;-91
2022/07/06 07:31:55;;;;;;;;;4.33;4.00;;;;;22.36;80.19;101496.94;6210295;22;45355;-91
2022/07/06 07:34:21;;;;;;;;;3.33;3.00;;;;;22.44;79.76;101503.25;6236496;22;45610;-90
2022/07/06 07:36:46;;;;;;;;;5.00;5.00;;;;;22.53;78.96;101511.31;6213031;22;45520;-90
2022/07/06 07:39:12;;;;;;;;;2.00;2.00;;;;;22.60;79.02;101514.94;6184751;22;46907;-91
2022/07/06 07:41:37;;;;;;;;;4.67;4.67;;;;;22.67;78.48;101513.22;6179568;22;45548;-91
2022/07/06 07:44:02;;;;;;;;;5.33;3.33;;;;;22.72;77.71;101514.19;6181975;22;45588;-91
2022/07/06 07:46:28;;;;;;;;;3.33;3.33;;;;;22.80;78.19;101513.31;6207925;22;45434;-91
2022/07/06 07:48:53;;;;;;;;;3.00;3.00;;;;;22.91;77.88;101516.94;6179750;22;48725;-91
2022/07/06 07:51:19;;;;;;;;;3.33;2.67;;;;;22.98;78.27;101502.75;6209638;22;45358;-90
2022/07/06 07:53:44;;;;;;;;;4.00;2.33;;;;;23.12;77.54;101522.44;6233983;22;45352;-91
2022/07/06 07:56:10;;;;;;;;;3.67;3.67;;;;;23.19;77.26;101527.81;6213772;22;45582;-95
2022/07/06 07:58:35;;;;;;;;;4.00;4.00;;;;;23.27;76.45;101538.56;6192436;22;47284;-95
2022/07/06 08:01:01;;;;;;;;;2.33;2.00;;;;;23.23;76.17;101528.72;6234280;22;45947;-96
2022/07/06 08:03:27;;;;;;;;;2.33;2.33;;;;;23.42;76.30;101542.22;6241602;22;44779;-96
2022/07/06 08:28:52;;;;;;;;;6.00;4.50;;;;;24.15;74.41;101565.66;6183783;22;46196;31
2022/07/06 08:37:00;;;;;;;;;5.00;2.67;;;;;24.36;73.72;101554.97;6157706;22;46204;-92
2022/07/06 08:39:25;;;;;;;;;4.00;4.00;;;;;24.41;73.66;101620.25;6246060;22;45248;-94
2022/07/06 08:41:52;;;;;;;;;3.67;3.67;;;;;24.51;73.43;101859.97;6248386;22;46644;-96
2022/07/06 08:46:54;;;;;;;;;3.00;3.00;;;;;24.73;73.55;101937.94;6202816;22;45335;-94
2022/07/06 08:51:51;;;;;;;;;3.00;3.00;;;;;25.00;73.24;102011.44;6238164;22;46115;-96
2022/07/06 08:54:18;;;;;;;;;4.33;4.00;;;;;24.96;73.21;102013.22;6308451;22;45227;-96
2022/07/06 08:56:43;;;;;;;;;3.00;3.00;;;;;25.19;72.58;102044.69;6201822;22;46088;-93
2022/07/06 08:59:10;;;;;;;;;4.00;3.00;;;;;25.20;72.58;102027.66;6229694;22;44963;-94
2022/07/06 09:01:38;;;;;;;;;2.50;2.50;;;;;25.27;72.55;102028.63;6235615;22;46048;-96
2022/07/06 09:04:07;;;;;;;;;6.00;4.67;;;;;25.50;72.04;102080.66;6197143;22;44767;-91
2022/07/06 09:06:33;;;;;;;;;3.00;3.00;;;;;25.44;71.96;102090.47;6232105;22;44927;-96
2022/07/06 09:11:32;;;;;;;;;3.33;3.33;;;;;25.53;71.92;102092.31;6225317;22;45830;-95
2022/07/06 09:13:57;;;;;;;;;2.33;2.33;;;;;25.63;71.91;102086.97;6186510;22;45861;-95
2022/07/06 09:16:28;;;;;;;;;2.33;2.33;;;;;25.92;71.98;102115.78;6194015;22;45592;-95
2022/07/06 09:18:54;;;;;;;;;4.00;3.33;;;;;26.15;71.44;102135.53;6238931;22;45978;-91
2022/07/06 09:21:32;;;;;;;;;5.00;5.00;;;;;26.34;71.17;102133.75;6221362;22;47073;-96
2022/07/06 09:24:04;;;;;;;;;3.67;3.67;;;;;26.38;70.72;102138.28;6257605;22;44732;-96
2022/07/06 09:29:01;;;;;;;;;3.00;2.67;;;;;26.47;70.50;102155.38;6233205;22;45189;-96
2022/07/06 09:31:27;;;;;;;;;3.00;3.00;;;;;26.61;70.28;102171.50;6231450;22;46883;-95
2022/07/06 09:44:26;;;;;;;;;4.00;4.00;;;;;27.13;69.74;102196.66;6257679;22;45337;-91
2022/07/06 09:49:27;;;;;;;;;3.67;3.67;;;;;27.64;69.53;102201.03;6233944;22;45808;-95
2022/07/06 09:51:57;;;;;;;;;3.67;3.67;;;;;27.87;69.44;102210.84;6246248;22;45387;-96
2022/07/06 09:54:24;;;;;;;;;3.00;3.00;;;;;27.97;68.73;102222.50;6256582;22;45344;-92
2022/07/06 09:56:51;;;;;;;;;4.67;4.33;;;;;27.98;68.43;102227.00;6246500;22;45286;-92
2022/07/06 09:59:28;;;;;;;;;2.00;2.00;;;;;28.55;68.14;102230.28;6270496;22;45404;-96
2022/07/06 10:01:59;;;;;;;;;3.00;3.00;;;;;29.45;67.92;102227.72;6217497;22;47284;-95
2022/07/06 10:04:26;;;;;;;;;4.67;2.00;;;;;30.74;67.68;102234.16;6213223;22;45391;-93
2022/07/06 10:06:53;;;;;;;;;3.00;3.00;;;;;32.01;66.53;102269.78;6242119;22;45238;-93
2022/07/06 10:09:20;;;;;;;;;3.67;3.00;;;;;33.43;64.51;102288.22;6219181;22;45209;-93
2022/07/06 10:11:53;;;;;;;;;3.00;2.00;;;;;34.75;63.85;102301.56;6240598;22;45282;-93
2022/07/06 10:14:22;;;;;;;;;4.67;4.00;;;;;35.96;60.25;102318.34;6211812;22;45329;-93
2022/07/06 10:16:49;;;;;;;;;3.67;2.33;;;;;36.97;60.61;102318.94;6264428;22;45407;-95
2022/07/06 10:19:17;;;;;;;;;3.00;3.00;;;;;37.80;59.21;102325.38;6212578;22;45469;-96
2022/07/06 10:21:43;;;;;;;;;3.00;3.00;;;;;38.66;58.45;102325.91;6266402;22;47109;-94
2022/07/06 10:24:12;;;;;;;;;2.33;2.33;;;;;39.55;56.30;102337.00;6213212;22;45263;-95
2022/07/06 10:26:38;;;;;;;;;3.00;3.00;;;;;39.11;52.06;102342.88;6213377;22;45216;-94
2022/07/06 10:29:04;;;;;;;;;3.00;3.00;;;;;37.94;52.12;102354.00;6245792;22;45498;-95
2022/07/06 10:31:31;;;;;;;;;3.00;3.00;;;;;37.04;52.20;102349.66;6246890;22;45538;-92
2022/07/06 10:33:58;;;;;;;;;4.00;2.00;;;;;36.89;53.41;102346.63;6241688;22;45667;-95
2022/07/06 10:36:24;;;;;;;;;5.00;4.00;;;;;36.66;51.95;102350.28;6215885;22;45431;-95
2022/07/06 10:38:51;;;;;;;;;2.00;2.00;;;;;38.00;54.67;102348.25;6213695;22;45319;-95
2022/07/06 10:41:18;;;;;;;;;3.67;2.67;;;;;39.86;53.50;102350.94;6211257;22;48177;-93
2022/07/06 10:43:45;;;;;;;;;6.00;4.67;;;;;41.66;53.13;102345.13;6245006;22;45392;-93
2022/07/06 10:46:19;;;;;;;;;3.00;3.00;;;;;43.76;51.82;102360.69;6216059;22;45338;-94
2022/07/06 10:48:46;;;;;;;;;4.00;4.00;;;;;43.94;49.24;102352.88;6242353;22;45364;-96
2022/07/06 10:51:32;;;;;;;;;3.33;3.33;;;;;42.84;47.20;102354.97;6238823;22;45274;-93
2022/07/06 10:54:01;;;;;;;;;4.67;4.00;;;;;41.21;46.94;102344.16;6209229;22;45356;-94
2022/07/06 10:56:37;;;;;;;;;5.00;5.00;;;;;40.54;48.34;102357.19;6208921;22;45487;-93
2022/07/06 10:59:10;;;;;;;;;7.67;6.00;;;;;40.55;47.88;102360.84;6233531;22;45295;-96
2022/07/06 11:01:35;;;;;;;;;6.67;6.00;;;;;39.85;47.76;102361.03;6213556;22;45332;-92
2022/07/06 11:04:02;;;;;;;;;7.33;7.00;;;;;39.27;47.06;102358.56;6214879;22;44730;-90
2022/07/06 11:06:27;;;;;;;;;7.00;6.00;;;;;38.90;47.76;102358.59;6209285;22;45382;-89
2022/07/06 11:08:56;;;;;;;;;5.00;5.00;;;;;39.06;48.02;102355.06;6208073;22;45244;-91
2022/07/06 11:11:31;;;;;;;;;5.67;5.67;;;;;40.64;48.72;102341.03;6209466;22;45378;-92
2022/07/06 11:14:01;;;;;;;;;5.67;5.67;;;;;42.92;48.85;102345.31;6210979;22;45534;-90
2022/07/06 11:16:28;;;;;;;;;7.00;6.00;;;;;45.04;46.82;102335.56;6212831;22;45245;-90
2022/07/06 11:19:11;;;;;;;;;7.67;7.00;;;;;47.11;44.61;102331.66;6208220;22;45479;-91
2022/07/06 11:21:43;;;;;;;;;5.00;5.00;;;;;48.79;43.48;102330.41;6207694;22;45510;-90
2022/07/06 11:24:12;;;;;;;;;5.00;5.00;;;;;50.17;41.88;102330.97;6229533;22;51581;-89
2022/07/06 11:26:38;;;;;;;;;4.67;4.67;;;;;51.42;39.56;102343.16;6230494;22;45378;-87
2022/07/06 11:29:08;;;;;;;;;6.00;5.00;;;;;52.44;38.43;102342.47;6180459;22;45363;-88
2022/07/06 11:31:36;;;;;;;;;4.33;4.33;;;;;53.21;37.69;102327.34;6207468;22;45299;-87
2022/07/06 11:34:03;;;;;;;;;2.67;2.67;;;;;53.67;34.74;102334.22;6207393;22;45499;-88
2022/07/06 11:36:28;;;;;;;;;3.00;3.00;;;;;53.64;34.94;102321.41;6206759;22;45484;-87
2022/07/06 11:38:53;;;;;;;;;4.00;4.00;;;;;54.17;34.75;102334.81;6207251;22;52164;-87
2022/07/06 11:41:19;;;;;;;;;2.33;2.33;;;;;54.92;33.32;102324.00;6206629;22;45718;-89
2022/07/06 11:43:46;;;;;;;;;4.00;3.67;;;;;54.05;32.58;102328.75;6208612;22;45350;-88
2022/07/06 11:46:26;;;;;;;;;2.00;2.00;;;;;51.44;32.54;102320.63;6208032;22;45472;-89
2022/07/06 11:48:55;;;;;;;;;3.33;3.00;;;;;50.42;33.38;102317.25;6180047;22;45511;-89
2022/07/06 11:51:20;;;;;;;;;4.00;3.00;;;;;51.43;32.13;102318.88;6206544;22;46264;-88
2022/07/06 11:53:49;;;;;;;;;2.33;1.67;;;;;52.64;32.98;102308.53;6231414;22;45492;-89
2022/07/06 11:56:21;;;;;;;;;3.33;3.33;;;;;54.00;32.38;102307.91;6230312;22;45291;-89
2022/07/06 11:58:48;;;;;;;;;2.00;2.00;;;;;55.21;32.13;102307.34;6180257;22;45617;-90
2022/07/06 12:01:14;;;;;;;;;3.33;3.00;;;;;56.41;31.39;102305.28;6207345;22;46534;-94
2022/07/06 12:03:40;;;;;;;;;2.00;2.00;;;;;55.88;30.10;102296.06;6231285;22;45758;-93
2022/07/06 12:06:12;;;;;;;;;3.00;3.00;;;;;55.17;30.59;102293.69;6173594;22;45397;-90
2022/07/06 12:08:48;;;;;;;;;4.00;3.00;;;;;56.04;30.24;102308.16;6207794;22;45297;-91
2022/07/06 12:11:21;;;;;;;;;5.00;5.00;;;;;57.11;29.64;102300.81;6229688;22;46720;-91
2022/07/06 12:13:47;;;;;;;;;7.00;4.00;;;;;58.11;29.13;102293.97;6231144;22;45373;-90
2022/07/06 12:16:15;;;;;;;;;3.00;3.00;;;;;57.35;28.74;102283.56;6206249;22;45296;-90
2022/07/06 12:18:41;;;;;;;;;4.00;3.00;;;;;57.77;28.61;102291.94;6206719;22;45216;-92
2022/07/06 12:21:08;;;;;;;;;3.67;2.33;;;;;56.74;27.80;102301.00;6178969;22;47886;-88
2022/07/06 12:23:41;;;;;;;;;3.67;3.00;;;;;56.24;28.78;102296.22;6207678;22;45335;-94
2022/07/06 12:26:08;;;;;;;;;3.67;2.67;;;;;57.17;28.78;102299.94;6179614;22;45387;-91
2022/07/06 12:28:33;;;;;;;;;3.00;3.00;;;;;58.32;28.58;102272.25;6207762;22;45310;-90
2022/07/06 12:30:59;;;;;;;;;2.00;2.00;;;;;57.35;27.54;102275.97;6179234;22;48037;-90
2022/07/06 12:33:26;;;;;;;;;2.33;2.33;;;;;55.91;27.76;102277.91;6208863;22;45254;-91
2022/07/06 12:35:51;;;;;;;;;3.00;3.00;;;;;56.51;28.03;102299.28;6180620;22;45312;-90
2022/07/06 12:38:27;;;;;;;;;2.00;2.00;;;;;57.75;28.00;102290.44;6208784;22;45350;-90
2022/07/06 12:40:53;;;;;;;;;2.00;2.00;;;;;59.11;27.74;102296.03;6207967;22;45351;-90
2022/07/06 12:43:41;;;;;;;;;3.00;3.00;;;;;59.09;26.68;102278.41;6208636;22;45422;-91
2022/07/06 12:46:29;;;;;;;;;2.00;2.00;;;;;57.01;26.36;102287.06;6209293;22;45246;-90
2022/07/06 12:48:55;;;;;;;;;2.67;2.67;;;;;55.42;27.29;102275.63;6180825;22;45675;-90
2022/07/06 12:51:21;;;;;;;;;1.33;1.33;;;;;55.69;27.92;102273.16;6180949;22;48272;-90
2022/07/06 12:53:47;;;;;;;;;3.00;3.00;;;;;57.27;26.41;102279.84;6210907;22;45303;-92
2022/07/06 12:56:14;;;;;;;;;4.00;3.00;;;;;58.90;26.64;102278.25;6209109;22;45291;-91
2022/07/06 12:58:39;;;;;;;;;2.00;2.00;;;;;59.25;25.70;102254.44;6182866;22;45458;-93
2022/07/06 13:01:05;;;;;;;;;0.67;0.67;;;;;59.09;24.73;102253.84;6182092;22;48115;-93
2022/07/06 13:03:40;;;;;;;;;2.00;1.33;;;;;59.82;25.86;102255.66;6208758;22;45669;-91
2022/07/06 13:06:06;;;;;;;;;2.00;1.00;;;;;60.92;25.57;102260.03;6184795;22;45161;-95
2022/07/06 13:08:31;;;;;;;;;0.67;0.67;;;;;62.23;25.05;102257.88;6196654;22;45514;-96
2022/07/06 13:10:56;;;;;;;;;2.00;2.00;;;;;63.35;24.70;102246.59;6202703;22;47473;-96
2022/07/06 13:16:03;;;;;;;;;1.00;1.00;;;;;64.97;23.56;102251.06;6282697;22;45202;-96
2022/07/06 13:18:28;;;;;;;;;3.00;3.00;;;;;65.57;23.23;102245.69;6280348;22;45023;-96
2022/07/06 13:28:39;;;;;;;;;1.00;0.00;;;;;59.93;23.88;102211.53;6216763;22;45892;-96
2022/07/06 13:31:04;;;;;;;;;1.33;1.33;;;;;60.97;23.72;102216.78;6230818;22;47187;-95
2022/07/06 13:33:33;;;;;;;;;0.00;0.00;;;;;61.79;22.88;102201.38;6233445;22;45367;-96
2022/07/06 13:36:00;;;;;;;;;0.00;0.00;;;;;62.27;22.85;102200.56;6257098;22;45117;-96
2022/07/06 13:38:26;;;;;;;;;0.00;0.00;;;;;62.61;23.22;102203.56;6254527;22;44866;-96
2022/07/06 13:40:51;;;;;;;;;0.00;0.00;;;;;62.86;23.29;102193.88;6253204;22;45315;-96
2022/07/06 13:43:16;;;;;;;;;0.00;0.00;;;;;63.10;23.49;102185.25;6230669;22;46146;-96